Bei Facebook empfehlenBei Twitter postenGoogle plusPinterest

Das Wetter im Erzgebirge am 01.03.2017

Wetter und Klima am 01.03.2017 Holzhau im Erzgebirge (630m ü.NN)
Letzte gemessene Temperatur und Uhrzeit der Messung23:45:00 Uhr2.40 °C
Temperatur (Maximum / Höchstwert) und Uhrzeit der Messung15:00:00 Uhr5.60 °C
Temperatur (Minimum / Tiefstwert) und Uhrzeit der Messung05:30:00-1.10 °C
Errechneter Absolutwert der Temperaturschwankungen zwischen Tmin und Tmax des Tages6.70 K
Errechnete Tagesmitteltemperatur2.42813 °C
Gesamt - Niederschlag des Tages (in flüssiger Form)0.00 Liter / m²
Luftdruck (Maximum / Höchstwert) und Zeitpunkt der Messung20:15:00 Uhr1001.80 hPa
Luftdruck (Minimum / Tiefstwert) und Zeitpunkt der Messung00:00:00 Uhr993.80 hPa
Errechneter Absolutwert der Luftdruckschwankungen des Tages8.00 hPa
Höchste gemessene Windgeschwindigkeit und Uhrzeit der Messung10:45:00 Uhr28.08 km/h
Errechnete Windhäufigkeit in Relation zu den Messwerten des Tages76.04167 %
Niedrigste Windkühle (Windchill) und Zeitpunkt der Messung07:15:00 Uhr-3.50 °C
Taupunkt (Maximum / Höchstwert) und Uhrzeit der Messung15:30:00 Uhr1.10 °C
Taupunkt (Minimum / Tiefstwert) und Uhrzeit der Messung05:15:00-4.70 °C
Anzahl der automatisch eingelesenen Messwerte 96

Detaillierte Wetter- und Klima- Messwerte für den 01.03.2017 in Holzhau im Erzgebirge (630m ü.NN)
ZeitTemperaturLuftdruckRel. LuftfeuchteWindWindrichtungWindchillTaupunktNiederschlag l/m²
23:45:002.40 °C1000.50 hPa82.00 %-0.40 °C 
23:30:002.20 °C1000.50 hPa83.00 %2.52 km/hSW2.20 °C-0.40 °C 
23:15:002.20 °C1000.70 hPa83.00 %-0.40 °C 
23:00:001.90 °C1000.80 hPa83.00 %-0.70 °C 
22:45:001.80 °C1001.00 hPa82.00 %5.40 km/hSSW0.30 °C-0.90 °C 
22:30:002.10 °C1001.00 hPa82.00 %-0.60 °C 
22:15:002.40 °C1001.30 hPa81.00 %-0.50 °C 
22:00:002.60 °C1001.30 hPa81.00 %-0.30 °C 
21:45:002.60 °C1001.50 hPa81.00 %-0.30 °C 
21:30:002.70 °C1001.50 hPa81.00 %3.24 km/hSW2.70 °C-0.20 °C 
21:15:002.60 °C1001.40 hPa81.00 %3.24 km/hW2.60 °C-0.30 °C 
21:00:002.50 °C1001.60 hPa82.00 %-0.30 °C 
20:45:002.40 °C1001.50 hPa81.00 %1.44 km/hWSW2.40 °C-0.50 °C 
20:30:002.60 °C1001.70 hPa81.00 %-0.30 °C 
20:15:002.50 °C1001.80 hPa82.00 %-0.30 °C 
20:00:002.30 °C1001.70 hPa82.00 %4.32 km/hWNW2.30 °C-0.40 °C 
19:45:001.90 °C1001.60 hPa83.00 %4.32 km/hWNW1.90 °C-0.70 °C 
19:30:001.90 °C1001.70 hPa82.00 %-0.80 °C 
19:15:001.90 °C1001.70 hPa82.00 %5.40 km/hSW0.40 °C-0.80 °C 
19:00:001.90 °C1001.70 hPa82.00 %0.72 km/hW1.90 °C-0.80 °C 
18:45:001.60 °C1001.60 hPa82.00 %6.48 km/hSW-0.40 °C-1.10 °C 
18:30:001.80 °C1001.70 hPa80.00 %-1.30 °C 
18:15:002.30 °C1001.50 hPa81.00 %5.04 km/hSW1.00 °C-0.60 °C 
18:00:002.50 °C1001.60 hPa80.00 %-0.60 °C 
17:45:002.80 °C1001.50 hPa80.00 %6.12 km/hWNW1.20 °C-0.30 °C 
17:30:003.10 °C1001.50 hPa80.00 %2.16 km/hW3.10 °C0.00 °C 
17:15:003.40 °C1001.50 hPa80.00 %0.30 °C 
17:00:003.60 °C1001.40 hPa82.00 %9.36 km/hWSW1.10 °C0.80 °C 
16:45:003.50 °C1001.50 hPa82.00 %0.70 °C 
16:30:003.30 °C1001.30 hPa82.00 %5.40 km/hWNW2.00 °C0.50 °C 
16:15:003.30 °C1001.30 hPa81.00 %11.88 km/hW0.20 °C0.40 °C 
16:00:003.80 °C1001.50 hPa79.00 %6.12 km/hW2.30 °C0.50 °C 
15:45:004.30 °C1001.20 hPa77.00 %2.52 km/hSSW4.30 °C0.60 °C 
15:30:004.60 °C1000.90 hPa78.00 %2.16 km/hW4.60 °C1.10 °C 
15:15:004.60 °C1000.90 hPa77.00 %5.04 km/hNW3.60 °C0.90 °C 
15:00:005.60 °C1000.30 hPa69.00 %4.68 km/hSW5.60 °C0.40 °C 
14:45:005.50 °C1000.20 hPa70.00 %14.76 km/hW2.40 °C0.50 °C 
14:30:005.40 °C1000.00 hPa73.00 %2.88 km/hW5.40 °C1.00 °C 
14:15:004.60 °C999.90 hPa76.00 %3.60 km/hW4.60 °C0.70 °C 
14:00:004.50 °C999.70 hPa73.00 %1.08 km/hWNW4.50 °C0.10 °C 
13:45:004.30 °C999.40 hPa74.00 %0.72 km/hSW4.30 °C0.10 °C 
13:30:004.10 °C999.40 hPa74.00 %-0.10 °C 
13:15:003.90 °C999.50 hPa75.00 %5.04 km/hW2.80 °C-0.10 °C 
13:00:003.80 °C999.40 hPa76.00 %0.00 °C 
12:45:003.60 °C999.40 hPa75.00 %6.48 km/hWNW1.90 °C-0.40 °C 
12:30:003.60 °C999.30 hPa75.00 %4.32 km/hW3.60 °C-0.40 °C 
12:15:003.80 °C999.40 hPa72.00 %5.04 km/hSW2.70 °C-0.80 °C 
12:00:003.90 °C999.20 hPa72.00 %6.48 km/hSSW2.30 °C-0.70 °C 
11:45:003.90 °C999.20 hPa71.00 %4.68 km/hSW3.90 °C-0.90 °C 
11:30:004.20 °C999.20 hPa70.00 %1.80 km/hW4.20 °C-0.80 °C 
11:15:004.50 °C999.10 hPa68.00 %11.88 km/hSSW1.70 °C-0.90 °C 
11:00:004.70 °C998.90 hPa68.00 %5.76 km/hW3.50 °C-0.70 °C 
10:45:004.50 °C998.60 hPa68.00 %28.08 km/hSSW-0.40 °C-0.90 °C 
10:30:004.40 °C998.50 hPa69.00 %10.08 km/hWNW1.90 °C-0.80 °C 
10:15:004.10 °C998.20 hPa71.00 %7.56 km/hW2.20 °C-0.70 °C 
10:00:003.60 °C998.10 hPa71.00 %2.52 km/hW3.60 °C-1.20 °C 
09:45:003.50 °C998.20 hPa73.00 %9.00 km/hW1.10 °C-0.90 °C 
09:30:003.40 °C998.10 hPa72.00 %2.88 km/hWNW3.40 °C-1.20 °C 
09:15:003.40 °C998.00 hPa72.00 %8.64 km/hSSW1.10 °C-1.20 °C 
09:00:003.10 °C997.80 hPa73.00 %6.84 km/hWSW1.30 °C-1.30 °C 
08:45:002.80 °C997.60 hPa76.00 %15.48 km/hNNW-1.00 °C-1.00 °C 
08:30:002.50 °C997.40 hPa75.00 %6.12 km/hWNW0.80 °C-1.50 °C 
08:15:002.30 °C997.20 hPa76.00 %1.08 km/hW2.30 °C-1.50 °C 
08:00:001.90 °C997.20 hPa77.00 %1.80 km/hNNW1.90 °C-1.70 °C 
07:45:001.20 °C996.80 hPa78.00 %8.28 km/hW-1.40 °C-2.20 °C 
07:30:001.00 °C996.80 hPa79.00 %1.44 km/hSSW1.00 °C-2.20 °C 
07:15:000.60 °C996.70 hPa79.00 %14.04 km/hSW-3.50 °C-2.60 °C 
07:00:000.30 °C996.40 hPa79.00 %2.52 km/hWNW0.30 °C-2.90 °C 
06:45:00-0.10 °C996.40 hPa79.00 %7.56 km/hWNW-2.70 °C-3.70 °C 
06:30:00-0.50 °C996.30 hPa80.00 %3.96 km/hWNW-0.50 °C-3.90 °C 
06:15:00-0.60 °C996.40 hPa80.00 %5.40 km/hSW-2.50 °C-4.00 °C 
06:00:00-0.70 °C996.30 hPa80.00 %7.92 km/hSW-3.50 °C-4.10 °C 
05:45:00-1.00 °C996.40 hPa80.00 %3.24 km/hSW-1.00 °C-4.40 °C 
05:30:00-1.10 °C996.50 hPa79.00 %1.80 km/hSSW-1.10 °C-4.60 °C 
05:15:00-1.00 °C996.40 hPa78.00 %-4.70 °C 
05:00:00-0.60 °C996.40 hPa78.00 %-4.30 °C 
04:45:00-0.40 °C996.50 hPa78.00 %3.24 km/hW-0.40 °C-4.20 °C 
04:30:00-0.10 °C996.50 hPa79.00 %5.76 km/hWSW-2.00 °C-3.70 °C 
04:15:000.10 °C996.40 hPa79.00 %-3.10 °C 
04:00:000.40 °C996.40 hPa79.00 %3.96 km/hWSW0.40 °C-2.80 °C 
03:45:000.90 °C996.20 hPa79.00 %7.56 km/hWNW-1.50 °C-2.30 °C 
03:30:000.90 °C995.90 hPa80.00 %11.52 km/hS-2.60 °C-2.10 °C 
03:15:001.20 °C995.80 hPa81.00 %6.84 km/hNW-1.00 °C-1.70 °C 
03:00:001.40 °C995.60 hPa83.00 %3.96 km/hNNW1.40 °C-1.20 °C 
02:45:001.30 °C995.40 hPa83.00 %-1.30 °C 
02:30:001.30 °C995.20 hPa83.00 %7.92 km/hW-1.20 °C-1.30 °C 
02:15:001.30 °C995.10 hPa84.00 %2.52 km/hWSW1.30 °C-1.10 °C 
02:00:001.40 °C994.80 hPa84.00 %5.76 km/hWNW-0.30 °C-1.00 °C 
01:45:001.40 °C994.30 hPa85.00 %-0.80 °C 
01:30:001.30 °C994.40 hPa85.00 %3.24 km/hWSW1.30 °C-0.90 °C 
01:15:002.10 °C994.40 hPa83.00 %2.88 km/hW2.10 °C-0.50 °C 
01:00:002.60 °C994.30 hPa80.00 %3.96 km/hWNW2.60 °C-0.50 °C 
00:45:002.80 °C994.10 hPa78.00 %12.60 km/hWNW-0.50 °C-0.60 °C 
00:30:002.80 °C994.10 hPa78.00 %9.36 km/hNNW0.20 °C-0.60 °C 
00:15:002.80 °C993.90 hPa80.00 %8.64 km/hW0.40 °C-0.30 °C 
00:00:002.80 °C993.80 hPa81.00 %-0.10 °C 

Permanenter Link zu dieser Seite: Wetter im Erzgebirge am 01.03.2017
Performance-Info: Die Erstellung der Seite / Statistik(en) / Tabelle(n) erforderte 5 Datenbankserver-Abfrage(n) und dauerte 98 Millisekunden. (Dieser Messwert ist von der Gesamt-Auslastung des Servers abhängig.)
Erzgebirge - Wetter | Erzgebirge - Wetter (Mobilgeräte) | Komplette Klimadatenbank